aviador You're here:

KEKX Decoded Metar

ELIZABETH in KY, USA
Report Time2018-07-18 10:35:00
UTC Time2018-07-18 10:38:10
Flight Rules vfr VFR
WindCalm
Visibility9999 m
Phenomena:N/A
Clouds:N/A
Expected CloudBase > 800 ft AGL from Temp-Dew spread
CeilingNone
Temp18°C (ISA +4)
Dew Point16°C (88% RH)
QNH1018 hPa
Density Alt1,358 ft
Elevation755 ft
Report Wrong Elevation
Raw Report
KEKX 181035Z AUTO 00000KT 10SM CLR 18/16 A3006 RMK AO2
T01830156=

Extra information for KEKX:More info

Airport Information Weather charts Add Link Nearby Venues Social comments

AIRNAV info for KEKX